Terminal Aerodrome Forecast
Issued by NWS North Platte, NE

Home | Current Version | Previous Version | Graphics & Text | Print | Product List | Glossary On
Versions: 1 2 3 4 5 6 7 8 9 10 11 12 13 14 15 16 17 18 19 20 21
000
FTUS43 KLBF 221100
TAFVTN
TAF
KVTN 221121Z 2212/2312 15008KT P6SM BKN120
     FM221500 15012KT P6SM SCT070 OVC100
     FM221800 15015G21KT P6SM BKN070 OVC120
     FM222100 14017G24KT P6SM -RA OVC025
      TEMPO 2221/2301 4SM -RA BR OVC007
     FM230100 14009KT 4SM -RA BR OVC007
     FM230600 14007KT 2SM BR OVC005=

USA.gov is the U.S. government's official web portal to all federal, state and local government web resources and services.